createdAt,value
2018-06-03T00:02:26.706Z,34.07
2018-06-03T00:04:55.203Z,34.87
2018-06-03T00:07:23.730Z,34.97
2018-06-03T00:09:52.332Z,35.30
2018-06-03T00:12:20.922Z,34.40
2018-06-03T00:14:49.405Z,32.47
2018-06-03T00:17:18.079Z,34.47
2018-06-03T00:19:46.618Z,35.23
2018-06-03T00:22:23.006Z,35.80
2018-06-03T00:24:51.534Z,34.80
2018-06-03T00:27:20.030Z,34.43
2018-06-03T00:29:48.511Z,33.90
2018-06-03T00:32:17.005Z,34.73
2018-06-03T00:34:45.583Z,33.47
2018-06-03T00:37:14.835Z,35.15
2018-06-03T00:39:43.466Z,33.13
2018-06-03T00:42:12.011Z,34.27
2018-06-03T00:44:40.522Z,33.73
2018-06-03T00:47:09.044Z,32.20
2018-06-03T00:49:37.559Z,34.30
2018-06-03T00:52:06.146Z,32.10
2018-06-03T00:54:35.457Z,32.50
2018-06-03T00:57:09.706Z,33.27
2018-06-03T00:59:38.654Z,33.13
2018-06-03T01:02:07.393Z,31.50
2018-06-03T01:04:35.980Z,32.10
2018-06-03T01:07:04.453Z,33.17
2018-06-03T01:09:33.073Z,32.37
2018-06-03T01:12:01.586Z,32.90
2018-06-03T01:14:30.092Z,32.83
2018-06-03T01:16:58.618Z,31.80
2018-06-03T01:19:26.827Z,31.63
2018-06-03T01:21:55.357Z,32.77
2018-06-03T01:24:23.838Z,31.47
2018-06-03T01:26:52.351Z,30.43
2018-06-03T01:29:20.867Z,31.20
2018-06-03T01:31:49.385Z,31.93
2018-06-03T01:34:17.867Z,30.60
2018-06-03T01:36:46.334Z,31.23
2018-06-03T01:39:14.862Z,32.10
2018-06-03T01:41:43.335Z,32.63
2018-06-03T01:44:11.561Z,31.63
2018-06-03T01:46:40.067Z,31.20
2018-06-03T01:49:08.578Z,31.53
2018-06-03T01:51:37.142Z,30.27
2018-06-03T01:54:05.698Z,31.83
2018-06-03T01:56:34.215Z,31.80
2018-06-03T01:59:02.768Z,30.57
2018-06-03T02:01:31.329Z,31.37
2018-06-03T02:03:59.802Z,30.33
2018-06-03T02:06:28.326Z,30.00
2018-06-03T02:08:56.798Z,29.60
2018-06-03T02:11:25.311Z,30.30
2018-06-03T02:13:53.850Z,30.07
2018-06-03T02:16:22.341Z,29.10
2018-06-03T02:18:50.831Z,29.70
2018-06-03T02:21:19.355Z,28.87
2018-06-03T02:23:47.968Z,28.93
2018-06-03T02:26:16.140Z,29.90
2018-06-03T02:28:44.638Z,29.63
2018-06-03T02:31:13.170Z,28.40
2018-06-03T02:33:41.726Z,27.67
2018-06-03T02:36:10.233Z,28.40
2018-06-03T02:38:38.735Z,28.03
2018-06-03T02:41:07.268Z,28.20
2018-06-03T02:43:35.794Z,28.80
2018-06-03T02:46:04.310Z,27.77
2018-06-03T02:48:32.838Z,28.23
2018-06-03T02:51:01.326Z,28.43
2018-06-03T02:53:29.811Z,30.03
2018-06-03T02:55:59.142Z,28.60
2018-06-03T02:58:27.637Z,29.20
2018-06-03T03:00:56.120Z,28.30
2018-06-03T03:03:24.418Z,28.83
2018-06-03T03:05:52.890Z,28.23
2018-06-03T03:08:21.091Z,29.73
2018-06-03T03:10:49.605Z,28.27
2018-06-03T03:13:18.118Z,29.20
2018-06-03T03:15:46.716Z,27.90
2018-06-03T03:18:15.209Z,26.97
2018-06-03T03:20:43.789Z,27.77
2018-06-03T03:23:11.945Z,27.00
2018-06-03T03:25:40.431Z,28.37
2018-06-03T03:28:08.981Z,26.33
2018-06-03T03:30:37.553Z,27.33
2018-06-03T03:33:06.103Z,27.13
2018-06-03T03:35:34.674Z,26.97
2018-06-03T03:38:02.861Z,26.63
2018-06-03T03:40:31.507Z,27.17
2018-06-03T03:43:00.057Z,26.77
2018-06-03T03:45:28.567Z,27.90
2018-06-03T03:47:57.142Z,28.67
2018-06-03T03:50:25.816Z,27.87
2018-06-03T03:52:54.339Z,27.70
2018-06-03T03:55:22.930Z,28.37
2018-06-03T03:57:51.476Z,27.90
2018-06-03T04:00:20.013Z,28.33
2018-06-03T04:02:48.219Z,28.17
2018-06-03T04:05:16.767Z,28.97
2018-06-03T04:07:45.335Z,29.50
2018-06-03T04:10:13.882Z,30.27
2018-06-03T04:12:42.366Z,29.80
2018-06-03T04:15:10.906Z,28.83
2018-06-03T04:17:39.093Z,28.40
2018-06-03T04:20:07.610Z,28.60
2018-06-03T04:22:36.138Z,29.00
2018-06-03T04:25:04.630Z,30.73
2018-06-03T04:27:33.202Z,30.73
2018-06-03T04:30:01.748Z,30.33
2018-06-03T04:32:30.242Z,28.70
2018-06-03T04:34:58.735Z,28.37
2018-06-03T04:37:27.359Z,28.83
2018-06-03T04:39:55.857Z,29.13
2018-06-03T04:42:24.658Z,27.67
2018-06-03T04:44:53.208Z,28.90
2018-06-03T04:47:21.747Z,28.90
2018-06-03T04:49:50.250Z,28.70
2018-06-03T04:52:18.728Z,29.97
2018-06-03T04:54:47.217Z,28.57
2018-06-03T04:57:15.721Z,31.00
2018-06-03T04:59:44.213Z,30.50
2018-06-03T05:02:12.401Z,32.83
2018-06-03T05:04:41.052Z,32.40
2018-06-03T05:07:09.571Z,31.57
2018-06-03T05:09:38.114Z,33.03
2018-06-03T05:12:06.834Z,36.17
2018-06-03T05:14:35.337Z,35.30
2018-06-03T05:17:03.869Z,35.07
2018-06-03T05:19:32.415Z,34.53
2018-06-03T05:22:00.962Z,35.77
2018-06-03T05:24:29.573Z,36.00
2018-06-03T05:26:58.130Z,37.03
2018-06-03T05:29:26.666Z,36.70
2018-06-03T05:31:55.171Z,37.07
2018-06-03T05:34:23.729Z,39.93
2018-06-03T05:36:52.333Z,38.53
2018-06-03T05:39:20.873Z,41.37
2018-06-03T05:41:49.395Z,41.13
2018-06-03T05:44:17.922Z,41.67
2018-06-03T05:46:46.445Z,42.53
2018-06-03T05:49:15.231Z,43.55
2018-06-03T05:51:43.740Z,43.53
2018-06-03T05:54:12.832Z,41.90
2018-06-03T05:56:41.342Z,42.80
2018-06-03T05:59:09.889Z,41.50
2018-06-03T06:01:38.962Z,41.57
2018-06-03T06:04:07.551Z,38.77
2018-06-03T06:06:36.055Z,38.90
2018-06-03T06:09:06.584Z,39.47
2018-06-03T06:11:34.709Z,39.47
2018-06-03T06:14:03.339Z,39.87
2018-06-03T06:16:31.849Z,37.87
2018-06-03T06:19:00.877Z,38.80
2018-06-03T06:21:29.357Z,38.23
2018-06-03T06:23:57.549Z,41.23
2018-06-03T06:26:26.037Z,39.50
2018-06-03T06:28:54.571Z,38.00
2018-06-03T06:31:23.101Z,43.23
2018-06-03T06:33:51.697Z,43.80
2018-06-03T06:36:20.198Z,44.20
2018-06-03T06:38:48.701Z,45.20
2018-06-03T06:41:17.270Z,50.60
2018-06-03T06:43:45.810Z,49.47
2018-06-03T06:46:14.962Z,54.80
2018-06-03T06:48:43.490Z,48.60
2018-06-03T06:51:11.968Z,53.90
2018-06-03T06:53:40.504Z,51.33
2018-06-03T06:56:09.344Z,59.63
2018-06-03T06:58:37.957Z,56.43
2018-06-03T07:01:06.574Z,56.00
2018-06-03T07:03:35.106Z,60.53
2018-06-03T07:06:03.575Z,52.03
2018-06-03T07:08:32.116Z,55.63
2018-06-03T07:11:00.721Z,55.70
2018-06-03T07:13:29.290Z,54.37
2018-06-03T07:15:57.822Z,52.97
2018-06-03T07:18:26.456Z,50.80
2018-06-03T07:20:55.537Z,52.70
2018-06-03T07:23:24.584Z,51.40
2018-06-03T07:25:53.819Z,52.23
2018-06-03T07:28:22.602Z,51.90
2018-06-03T07:30:51.158Z,52.87
2018-06-03T07:33:19.662Z,49.63
2018-06-03T07:35:48.160Z,35.90
2018-06-03T07:38:16.345Z,52.20
2018-06-03T07:40:45.547Z,53.33
2018-06-03T07:43:14.527Z,51.53
2018-06-03T07:45:43.183Z,52.90
2018-06-03T07:48:11.722Z,51.77
2018-06-03T07:50:40.254Z,48.40
2018-06-03T07:53:09.475Z,51.23
2018-06-03T07:55:37.989Z,48.40
2018-06-03T07:58:06.515Z,50.57
2018-06-03T08:00:35.025Z,46.20
2018-06-03T08:03:03.216Z,48.70
2018-06-03T08:05:31.763Z,47.40
2018-06-03T08:08:01.082Z,47.10
2018-06-03T08:10:29.329Z,49.03
2018-06-03T08:12:57.849Z,47.57
2018-06-03T08:15:26.615Z,47.20
2018-06-03T08:17:55.178Z,38.00
2018-06-03T08:20:23.951Z,38.67
2018-06-03T08:22:52.480Z,38.27
2018-06-03T08:25:21.039Z,32.17
2018-06-03T08:27:49.563Z,30.90
2018-06-03T08:30:18.057Z,28.87
2018-06-03T08:32:46.627Z,33.63
2018-06-03T08:35:15.184Z,34.73
2018-06-03T08:37:43.711Z,35.07
2018-06-03T08:40:12.211Z,34.67
2018-06-03T08:42:41.606Z,36.20
2018-06-03T08:45:10.170Z,27.07
2018-06-03T08:47:38.385Z,32.00
2018-06-03T08:50:06.994Z,34.40
2018-06-03T08:52:35.736Z,31.33
2018-06-03T08:55:04.634Z,32.40
2018-06-03T08:57:33.122Z,32.33
2018-06-03T09:00:01.660Z,32.10
2018-06-03T09:02:30.195Z,32.20
2018-06-03T09:04:58.746Z,31.30
2018-06-03T09:07:27.078Z,30.20
2018-06-03T09:09:55.654Z,31.67
2018-06-03T09:12:24.150Z,31.83
2018-06-03T09:14:52.650Z,32.40
2018-06-03T09:17:21.202Z,31.27
2018-06-03T09:19:49.713Z,31.00
2018-06-03T09:22:18.367Z,29.87
2018-06-03T09:24:46.891Z,31.60
2018-06-03T09:27:15.667Z,30.50
2018-06-03T09:29:44.166Z,33.47
2018-06-03T09:32:12.735Z,31.77
2018-06-03T09:34:41.665Z,32.07
2018-06-03T09:37:10.185Z,29.80
2018-06-03T09:39:39.223Z,30.17
2018-06-03T09:42:07.769Z,32.87
2018-06-03T09:44:36.291Z,32.73
2018-06-03T09:47:04.853Z,26.50
2018-06-03T09:49:33.730Z,30.37
2018-06-03T09:52:02.267Z,26.13
2018-06-03T09:54:30.452Z,24.30
2018-06-03T09:56:58.974Z,21.10
2018-06-03T09:59:27.544Z,23.97
2018-06-03T10:01:56.114Z,23.50
2018-06-03T10:04:24.341Z,25.37
2018-06-03T10:06:52.873Z,24.57
2018-06-03T10:09:21.029Z,23.30
2018-06-03T10:11:49.573Z,25.63
2018-06-03T10:14:18.107Z,27.20
2018-06-03T10:16:46.599Z,27.40
2018-06-03T10:19:15.685Z,24.70
2018-06-03T10:21:43.866Z,24.30
2018-06-03T10:24:12.346Z,24.10
2018-06-03T10:26:40.906Z,22.40
2018-06-03T10:29:09.466Z,21.90
2018-06-03T10:31:37.959Z,22.07
2018-06-03T10:34:06.462Z,17.70
2018-06-03T10:36:34.983Z,18.97
2018-06-03T10:39:03.596Z,18.90
2018-06-03T10:41:32.129Z,18.13
2018-06-03T10:44:00.681Z,19.30
2018-06-03T10:46:29.191Z,17.20
2018-06-03T10:48:57.712Z,16.07
2018-06-03T10:51:26.455Z,15.50
2018-06-03T10:53:55.280Z,14.47
2018-06-03T10:56:23.779Z,14.97
2018-06-03T10:58:52.305Z,14.50
2018-06-03T11:01:21.001Z,16.13
2018-06-03T11:03:50.185Z,15.47
2018-06-03T11:06:18.739Z,18.23
2018-06-03T11:08:47.289Z,16.90
2018-06-03T11:11:15.492Z,17.60
2018-06-03T11:13:44.051Z,15.03
2018-06-03T11:16:12.200Z,14.27
2018-06-03T11:18:40.751Z,15.93
2018-06-03T11:21:09.361Z,13.60
2018-06-03T11:23:37.847Z,14.73
2018-06-03T11:26:06.367Z,13.53
2018-06-03T11:28:34.889Z,11.23
2018-06-03T11:31:03.387Z,12.40
2018-06-03T11:33:31.889Z,11.43
2018-06-03T11:36:00.367Z,12.00
2018-06-03T11:38:28.871Z,11.17
2018-06-03T11:40:57.433Z,10.40
2018-06-03T11:43:25.973Z,8.83
2018-06-03T11:45:55.094Z,8.37
2018-06-03T11:48:23.606Z,7.70
2018-06-03T11:50:52.113Z,8.63
2018-06-03T11:53:20.696Z,8.50
2018-06-03T11:55:49.271Z,8.20
2018-06-03T11:59:20.135Z,7.00
2018-06-03T12:01:48.836Z,6.97
2018-06-03T12:04:17.375Z,8.27
2018-06-03T12:06:45.875Z,7.90
2018-06-03T12:09:14.539Z,6.67
2018-06-03T12:11:43.142Z,7.00
2018-06-03T12:14:11.362Z,7.50
2018-06-03T12:16:39.974Z,8.93
2018-06-03T12:19:08.491Z,8.50
2018-06-03T12:21:37.649Z,8.67
2018-06-03T12:24:06.229Z,7.60
2018-06-03T12:26:34.722Z,9.40
2018-06-03T12:29:03.261Z,8.93
2018-06-03T12:31:31.843Z,7.70
2018-06-03T12:34:00.301Z,7.70
2018-06-03T12:36:28.843Z,8.47
2018-06-03T12:38:57.379Z,8.23
2018-06-03T12:41:25.977Z,8.00
2018-06-03T12:43:54.437Z,7.90
2018-06-03T12:46:22.986Z,8.23
2018-06-03T12:48:51.482Z,9.00
2018-06-03T12:51:19.998Z,8.53
2018-06-03T12:53:48.232Z,8.30
2018-06-03T12:56:16.702Z,9.80
2018-06-03T12:58:45.205Z,10.77
2018-06-03T13:01:13.745Z,10.87
2018-06-03T13:03:42.256Z,11.23
2018-06-03T13:06:10.733Z,10.67
2018-06-03T13:08:39.310Z,10.67
2018-06-03T13:11:07.860Z,10.30
2018-06-03T13:13:36.379Z,12.27
2018-06-03T13:16:04.940Z,11.83
2018-06-03T13:18:33.605Z,12.00
2018-06-03T13:21:02.111Z,11.00
2018-06-03T13:23:30.665Z,12.50
2018-06-03T13:25:59.290Z,9.90
2018-06-03T13:28:27.809Z,10.67
2018-06-03T13:30:56.389Z,10.90
2018-06-03T13:33:24.981Z,12.20
2018-06-03T13:35:53.557Z,11.33
2018-06-03T13:38:22.122Z,12.43
2018-06-03T13:40:50.742Z,11.80
2018-06-03T13:43:19.334Z,11.67
2018-06-03T13:45:47.851Z,11.50
2018-06-03T13:48:16.431Z,12.97
2018-06-03T13:50:44.618Z,11.90
2018-06-03T13:53:13.167Z,12.43
2018-06-03T13:55:41.761Z,11.83
2018-06-03T13:58:10.354Z,12.10
2018-06-03T14:00:38.901Z,10.50
2018-06-03T14:03:07.402Z,10.57
2018-06-03T14:05:35.903Z,8.63
2018-06-03T14:08:04.450Z,11.77
2018-06-03T14:10:32.956Z,11.00
2018-06-03T14:13:01.454Z,9.43
2018-06-03T14:15:30.018Z,10.37
2018-06-03T14:17:59.321Z,9.60
2018-06-03T14:20:27.841Z,10.40
2018-06-03T14:22:56.026Z,7.47
2018-06-03T14:25:24.598Z,8.80
2018-06-03T14:27:53.177Z,11.10
2018-06-03T14:30:21.654Z,8.93
2018-06-03T14:32:50.153Z,10.50
2018-06-03T14:35:18.703Z,9.77
2018-06-03T14:37:47.300Z,9.17
2018-06-03T14:40:15.893Z,9.58
2018-06-03T14:42:44.354Z,9.73
2018-06-03T14:45:12.997Z,9.27
2018-06-03T14:47:41.508Z,9.60
2018-06-03T14:50:10.038Z,9.60
2018-06-03T14:52:38.560Z,9.47
2018-06-03T14:55:07.066Z,10.13
2018-06-03T14:57:35.607Z,10.53
2018-06-03T15:00:04.299Z,10.83
2018-06-03T15:02:32.811Z,9.97
2018-06-03T15:05:01.311Z,10.00
2018-06-03T15:07:29.789Z,10.63
2018-06-03T15:09:57.987Z,10.23
2018-06-03T15:12:26.554Z,10.43
2018-06-03T15:14:54.779Z,12.57
2018-06-03T15:17:23.355Z,13.80
2018-06-03T15:19:51.874Z,10.33
2018-06-03T15:22:20.482Z,11.43
2018-06-03T15:24:49.042Z,9.60
2018-06-03T15:27:17.730Z,11.07
2018-06-03T15:29:46.257Z,10.87
2018-06-03T15:32:14.797Z,9.00
2018-06-03T15:34:43.322Z,9.87
2018-06-03T15:37:11.930Z,10.10
2018-06-03T15:39:41.283Z,9.20
2018-06-03T15:42:09.853Z,10.03
2018-06-03T15:44:38.362Z,10.27
2018-06-03T15:47:06.864Z,10.33
2018-06-03T15:49:35.518Z,10.37
2018-06-03T15:52:04.067Z,9.63
2018-06-03T15:54:32.276Z,10.47
2018-06-03T15:57:00.892Z,10.27
2018-06-03T15:59:29.185Z,10.77
2018-06-03T16:01:57.731Z,10.40
2018-06-03T16:04:26.245Z,10.60
2018-06-03T16:06:54.777Z,10.03
2018-06-03T16:09:23.291Z,9.27
2018-06-03T16:11:51.827Z,9.73
2018-06-03T16:14:20.358Z,9.53
2018-06-03T16:16:48.869Z,9.37
2018-06-03T16:19:17.430Z,11.20
2018-06-03T16:21:45.989Z,9.50
2018-06-03T16:24:14.629Z,8.10
2018-06-03T16:26:43.118Z,9.23
2018-06-03T16:29:11.662Z,9.30
2018-06-03T16:31:40.216Z,9.70
2018-06-03T16:34:08.768Z,9.87
2018-06-03T16:36:37.296Z,8.77
2018-06-03T16:39:07.176Z,9.70
2018-06-03T16:41:35.734Z,10.30
2018-06-03T16:44:04.403Z,9.60
2018-06-03T16:46:32.930Z,7.57
2018-06-03T16:49:01.447Z,9.30
2018-06-03T16:51:30.096Z,7.73
2018-06-03T16:53:58.597Z,9.27
2018-06-03T16:56:27.133Z,9.40
2018-06-03T16:58:55.646Z,9.07
2018-06-03T17:01:24.126Z,8.93
2018-06-03T17:03:52.661Z,9.30
2018-06-03T17:06:21.813Z,9.47
2018-06-03T17:08:50.279Z,9.13
2018-06-03T17:11:18.794Z,10.20
2018-06-03T17:13:47.341Z,9.37
2018-06-03T17:16:16.629Z,9.15
2018-06-03T17:18:45.110Z,9.90
2018-06-03T17:21:13.650Z,9.77
2018-06-03T17:23:42.250Z,10.57
2018-06-03T17:26:10.773Z,12.97
2018-06-03T17:28:39.394Z,13.60
2018-06-03T17:31:07.971Z,13.23
2018-06-03T17:33:36.499Z,14.50
2018-06-03T17:36:05.172Z,13.73
2018-06-03T17:38:33.760Z,13.80
2018-06-03T17:41:02.298Z,13.80
2018-06-03T17:43:30.910Z,13.63
2018-06-03T17:45:59.391Z,12.53
2018-06-03T17:48:27.592Z,13.50
2018-06-03T17:50:56.106Z,12.87
2018-06-03T17:53:24.658Z,14.00
2018-06-03T17:55:53.347Z,13.50
2018-06-03T17:58:21.902Z,13.20
2018-06-03T18:00:50.434Z,13.27
2018-06-03T18:03:18.958Z,13.00
2018-06-03T18:05:47.534Z,13.00
2018-06-03T18:08:16.070Z,12.23
2018-06-03T18:10:44.567Z,11.70
2018-06-03T18:13:13.102Z,11.57
2018-06-03T18:15:41.304Z,11.30
2018-06-03T18:18:09.964Z,11.70
2018-06-03T18:20:38.477Z,11.57
2018-06-03T18:23:07.047Z,12.00
2018-06-03T18:25:35.553Z,10.70
2018-06-03T18:28:04.086Z,11.57
2018-06-03T18:30:32.657Z,10.57
2018-06-03T18:33:01.207Z,11.20
2018-06-03T18:35:29.761Z,10.33
2018-06-03T18:37:57.981Z,10.00
2018-06-03T18:40:26.515Z,9.90
2018-06-03T18:42:54.723Z,9.00
2018-06-03T18:45:23.233Z,9.10
2018-06-03T18:47:51.750Z,9.50
2018-06-03T18:50:20.280Z,9.60
2018-06-03T18:52:48.762Z,9.60
2018-06-03T18:55:17.474Z,9.90
2018-06-03T18:57:46.053Z,9.33
2018-06-03T19:00:14.771Z,9.17
2018-06-03T19:02:43.846Z,9.33
2018-06-03T19:05:12.579Z,10.23
2018-06-03T19:07:41.198Z,10.20
2018-06-03T19:10:09.820Z,9.93
2018-06-03T19:12:38.613Z,10.10
2018-06-03T19:15:07.394Z,10.00
2018-06-03T19:17:35.938Z,9.80
2018-06-03T19:20:04.565Z,9.93
2018-06-03T19:22:33.081Z,9.40
2018-06-03T19:25:01.699Z,10.20
2018-06-03T19:27:30.336Z,10.57
2018-06-03T19:29:58.835Z,10.17
2018-06-03T19:32:27.394Z,10.63
2018-06-03T19:34:55.946Z,10.20
2018-06-03T19:37:24.494Z,10.17
2018-06-03T19:39:53.101Z,9.40
2018-06-03T19:42:21.683Z,10.37
2018-06-03T19:44:50.261Z,10.07
2018-06-03T19:47:18.910Z,10.10
2018-06-03T19:49:47.154Z,10.20
2018-06-03T19:52:16.042Z,9.65
2018-06-03T19:54:44.641Z,10.17
2018-06-03T19:57:13.161Z,10.47
2018-06-03T19:59:41.706Z,10.60
2018-06-03T20:02:10.192Z,10.03
2018-06-03T20:04:38.826Z,10.57
2018-06-03T20:07:07.021Z,9.80
2018-06-03T20:09:35.544Z,10.57
2018-06-03T20:12:04.119Z,10.03
2018-06-03T20:14:32.680Z,11.20
2018-06-03T20:17:01.175Z,10.63
2018-06-03T20:19:29.726Z,10.60
2018-06-03T20:21:58.262Z,10.17
2018-06-03T20:24:26.779Z,11.00
2018-06-03T20:26:55.060Z,10.67
2018-06-03T20:29:23.594Z,9.80
2018-06-03T20:31:52.193Z,11.10
2018-06-03T20:34:20.676Z,10.17
2018-06-03T20:36:49.965Z,11.60
2018-06-03T20:39:18.939Z,9.93
2018-06-03T20:41:47.658Z,11.27
2018-06-03T20:44:16.789Z,11.20
2018-06-03T20:46:45.334Z,11.83
2018-06-03T20:49:13.887Z,10.33
2018-06-03T20:51:42.404Z,10.73
2018-06-03T20:54:10.922Z,11.10
2018-06-03T20:56:39.460Z,11.10
2018-06-03T20:59:08.013Z,11.27
2018-06-03T21:01:36.650Z,10.77
2018-06-03T21:04:05.384Z,11.10
2018-06-03T21:06:33.923Z,10.97
2018-06-03T21:09:02.502Z,11.00
2018-06-03T21:11:31.003Z,11.17
2018-06-03T21:13:59.771Z,10.93
2018-06-03T21:16:28.321Z,10.60
2018-06-03T21:18:56.916Z,10.33
2018-06-03T21:21:25.397Z,10.80
2018-06-03T21:23:53.962Z,10.67
2018-06-03T21:26:22.443Z,10.07
2018-06-03T21:28:50.944Z,10.40
2018-06-03T21:31:19.464Z,11.00
2018-06-03T21:33:47.947Z,10.13
2018-06-03T21:36:16.465Z,11.07
2018-06-03T21:38:44.969Z,11.00
2018-06-03T21:41:13.537Z,10.80
2018-06-03T21:43:42.039Z,10.20
2018-06-03T21:46:10.550Z,10.63
2018-06-03T21:48:39.085Z,10.57
2018-06-03T21:51:07.221Z,10.17
2018-06-03T21:53:35.742Z,10.70
2018-06-03T21:56:04.275Z,10.63
2018-06-03T21:58:32.826Z,11.10
2018-06-03T22:01:01.418Z,11.10
2018-06-03T22:03:29.946Z,11.07
2018-06-03T22:05:58.460Z,11.77
2018-06-03T22:08:27.855Z,11.00
2018-06-03T22:10:56.361Z,12.37
2018-06-03T22:13:24.852Z,14.07
2018-06-03T22:15:53.386Z,14.27
2018-06-03T22:18:21.895Z,14.90
2018-06-03T22:20:50.421Z,13.97
2018-06-03T22:23:18.942Z,13.70
2018-06-03T22:25:47.541Z,15.80
2018-06-03T22:28:16.422Z,15.28
2018-06-03T22:30:44.898Z,14.63
2018-06-03T22:33:13.497Z,15.90
2018-06-03T22:35:42.066Z,15.70
2018-06-03T22:38:10.611Z,15.70
2018-06-03T22:40:39.122Z,15.30
2018-06-03T22:43:07.648Z,17.57
2018-06-03T22:45:36.146Z,17.93
2018-06-03T22:48:04.689Z,18.03
2018-06-03T22:50:33.182Z,19.30
2018-06-03T22:53:01.694Z,21.07
2018-06-03T22:55:30.269Z,23.70
2018-06-03T22:57:58.476Z,20.03
2018-06-03T23:00:31.051Z,19.67
2018-06-03T23:03:04.821Z,20.03
2018-06-03T23:05:33.505Z,19.57
2018-06-03T23:08:02.051Z,20.97
2018-06-03T23:10:30.616Z,21.73
2018-06-03T23:12:59.106Z,21.97
2018-06-03T23:15:27.588Z,19.20
2018-06-03T23:17:56.244Z,22.93
2018-06-03T23:20:25.464Z,23.23
2018-06-03T23:22:54.091Z,26.93
2018-06-03T23:25:22.571Z,27.43
2018-06-03T23:27:51.129Z,30.20
2018-06-03T23:30:19.791Z,27.87
2018-06-03T23:32:48.287Z,26.63
2018-06-03T23:35:16.818Z,26.63
2018-06-03T23:37:45.357Z,29.60
2018-06-03T23:40:13.860Z,27.73
2018-06-03T23:42:42.355Z,27.10
2018-06-03T23:45:10.878Z,27.30
2018-06-03T23:47:39.495Z,25.87
2018-06-03T23:50:08.069Z,25.33
2018-06-03T23:52:36.623Z,27.07
2018-06-03T23:55:05.155Z,27.13
2018-06-03T23:57:33.672Z,28.50
